createdAt,value
2022-12-19T00:00:37.360Z,101481.09
2022-12-19T00:03:05.256Z,101498.81
2022-12-19T00:05:37.663Z,101489.50
2022-12-19T00:08:12.411Z,101486.13
2022-12-19T00:10:45.281Z,101488.69
2022-12-19T00:13:15.565Z,101476.06
2022-12-19T00:15:44.919Z,101471.03
2022-12-19T00:18:12.715Z,101473.56
2022-12-19T00:20:40.562Z,101458.22
2022-12-19T00:23:08.881Z,101457.50
2022-12-19T00:25:37.110Z,101457.50
2022-12-19T00:28:07.697Z,101461.00
2022-12-19T00:30:36.045Z,101460.13
2022-12-19T00:33:05.301Z,101464.44
2022-12-19T00:35:32.902Z,101460.13
2022-12-19T00:38:00.660Z,101448.16
2022-12-19T00:40:29.543Z,101443.94
2022-12-19T00:42:57.624Z,101451.63
2022-12-19T00:45:27.896Z,101442.25
2022-12-19T00:47:57.749Z,101437.34
2022-12-19T00:50:26.748Z,101437.31
2022-12-19T00:52:54.366Z,101445.75
2022-12-19T00:55:21.984Z,101449.06
2022-12-19T00:57:49.664Z,101449.16
2022-12-19T01:00:20.737Z,101443.56
2022-12-19T01:02:48.525Z,101432.72
2022-12-19T01:05:16.525Z,101437.16
2022-12-19T01:07:45.623Z,101444.13
2022-12-19T01:10:13.273Z,101439.97
2022-12-19T01:12:45.858Z,101446.06
2022-12-19T01:15:15.490Z,101440.91
2022-12-19T01:17:44.341Z,101445.97
2022-12-19T01:20:15.395Z,101440.09
2022-12-19T01:22:43.126Z,101434.97
2022-12-19T01:25:12.670Z,101439.19
2022-12-19T01:27:40.562Z,101427.31
2022-12-19T01:30:09.425Z,101429.94
2022-12-19T01:32:37.692Z,101428.28
2022-12-19T01:35:06.189Z,101430.78
2022-12-19T01:37:37.765Z,101427.47
2022-12-19T01:40:07.180Z,101426.59
2022-12-19T01:42:37.864Z,101419.66
2022-12-19T01:45:21.736Z,101416.28
2022-12-19T01:47:54.685Z,101415.31
2022-12-19T01:50:28.365Z,101409.38
2022-12-19T01:52:57.925Z,101408.63
2022-12-19T01:55:26.414Z,101410.28
2022-12-19T01:57:57.778Z,101409.41
2022-12-19T02:00:26.989Z,101410.28
2022-12-19T02:03:00.426Z,101407.00
2022-12-19T02:05:28.387Z,101414.66
2022-12-19T02:07:56.307Z,101411.38
2022-12-19T02:10:24.172Z,101403.81
2022-12-19T02:12:51.823Z,101398.75
2022-12-19T02:15:21.948Z,101405.56
2022-12-19T02:18:11.971Z,101396.22
2022-12-19T02:21:08.848Z,101391.06
2022-12-19T02:24:07.339Z,101392.72
2022-12-19T02:26:56.827Z,101384.31
2022-12-19T02:29:54.265Z,101385.16
2022-12-19T02:32:31.807Z,101391.13
2022-12-19T02:35:10.436Z,101392.88
2022-12-19T02:37:50.743Z,101387.91
2022-12-19T02:40:25.031Z,101379.34
2022-12-19T02:42:59.507Z,101376.06
2022-12-19T02:45:31.691Z,101368.41
2022-12-19T02:48:08.379Z,101369.41
2022-12-19T02:50:39.986Z,101372.75
2022-12-19T02:53:10.612Z,101372.72
2022-12-19T02:55:45.168Z,101375.31
2022-12-19T02:58:35.948Z,101365.25
2022-12-19T03:01:15.473Z,101374.53
2022-12-19T03:04:00.869Z,101366.06
2022-12-19T03:06:37.914Z,101371.16
2022-12-19T03:09:14.914Z,101378.06
2022-12-19T03:11:43.813Z,101372.97
2022-12-19T03:14:15.106Z,101378.06
2022-12-19T03:16:42.943Z,101366.19
2022-12-19T03:19:15.103Z,101367.16
2022-12-19T03:21:45.647Z,101372.25
2022-12-19T03:24:17.788Z,101362.91
2022-12-19T03:26:50.379Z,101357.81
2022-12-19T03:29:22.396Z,101360.38
2022-12-19T03:31:50.925Z,101356.22
2022-12-19T03:34:24.669Z,101370.72
2022-12-19T03:36:57.205Z,101368.25
2022-12-19T03:39:26.842Z,101366.69
2022-12-19T03:42:13.433Z,101369.38
2022-12-19T03:44:43.750Z,101362.78
2022-12-19T03:47:16.400Z,101365.34
2022-12-19T03:49:46.372Z,101370.44
2022-12-19T03:52:26.673Z,101364.69
2022-12-19T03:55:02.190Z,101363.84
2022-12-19T03:57:35.956Z,101368.16
2022-12-19T04:00:07.129Z,101370.72
2022-12-19T04:02:48.911Z,101372.41
2022-12-19T04:05:21.946Z,101372.41
2022-12-19T04:07:52.156Z,101371.56
2022-12-19T04:10:22.883Z,101363.13
2022-12-19T04:12:55.043Z,101357.25
2022-12-19T04:15:33.505Z,101352.25
2022-12-19T04:18:04.968Z,101355.09
2022-12-19T04:20:38.830Z,101351.53
2022-12-19T04:23:13.091Z,101350.69
2022-12-19T04:25:44.375Z,101345.66
2022-12-19T04:28:21.461Z,101347.31
2022-12-19T04:30:50.680Z,101342.22
2022-12-19T04:33:18.766Z,101343.91
2022-12-19T04:35:47.799Z,101344.81
2022-12-19T04:38:15.591Z,101337.13
2022-12-19T04:40:43.288Z,101337.19
2022-12-19T04:43:11.360Z,101334.63
2022-12-19T04:45:39.089Z,101326.19
2022-12-19T04:48:07.634Z,101325.41
2022-12-19T04:50:36.781Z,101301.66
2022-12-19T04:53:06.004Z,101302.50
2022-12-19T04:55:33.709Z,101296.72
2022-12-19T04:58:04.028Z,101294.09
2022-12-19T05:00:31.733Z,101300.13
2022-12-19T05:02:59.586Z,101303.53
2022-12-19T05:05:27.537Z,101303.66
2022-12-19T05:07:59.404Z,101305.34
2022-12-19T05:10:28.487Z,101304.53
2022-12-19T05:12:56.069Z,101302.88
2022-12-19T05:15:23.776Z,101308.00
2022-12-19T05:17:51.442Z,101296.97
2022-12-19T05:20:19.265Z,101297.03
2022-12-19T05:22:46.955Z,101297.78
2022-12-19T05:25:15.616Z,101300.66
2022-12-19T05:27:44.788Z,101290.38
2022-12-19T05:30:13.202Z,101293.88
2022-12-19T05:32:41.041Z,101288.03
2022-12-19T05:35:09.053Z,101298.19
2022-12-19T05:37:36.763Z,101298.34
2022-12-19T05:40:05.735Z,101307.63
2022-12-19T05:42:33.752Z,101312.00
2022-12-19T05:45:02.958Z,101301.25
2022-12-19T05:47:30.566Z,101301.25
2022-12-19T05:49:58.254Z,101296.00
2022-12-19T05:52:25.975Z,101302.84
2022-12-19T05:54:53.602Z,101308.66
2022-12-19T05:57:21.686Z,101308.75
2022-12-19T05:59:49.363Z,101304.47
2022-12-19T06:02:18.508Z,101299.38
2022-12-19T06:04:46.283Z,101296.78
2022-12-19T06:07:19.212Z,101297.06
2022-12-19T06:09:48.447Z,101300.41
2022-12-19T06:12:16.150Z,101293.50
2022-12-19T06:14:43.806Z,101296.91
2022-12-19T06:17:11.632Z,101297.00
2022-12-19T06:19:40.649Z,101298.84
2022-12-19T06:22:08.347Z,101297.16
2022-12-19T06:24:39.467Z,101293.06
2022-12-19T06:27:07.512Z,101307.47
2022-12-19T06:29:35.181Z,101326.97
2022-12-19T06:32:03.002Z,101325.50
2022-12-19T06:35:02.175Z,101328.91
2022-12-19T06:37:20.118Z,101323.69
2022-12-19T06:39:47.782Z,101316.91
2022-12-19T06:42:23.407Z,101299.91
2022-12-19T06:44:52.142Z,101308.47
2022-12-19T06:47:20.053Z,101305.97
2022-12-19T06:49:48.381Z,101300.94
2022-12-19T06:52:16.661Z,101301.03
2022-12-19T06:54:46.087Z,101301.94
2022-12-19T06:57:13.793Z,101305.25
2022-12-19T06:59:41.456Z,101289.31
2022-12-19T07:02:22.605Z,101283.94
2022-12-19T07:04:57.954Z,101290.97
2022-12-19T07:07:26.065Z,101289.31
2022-12-19T07:09:55.215Z,101296.75
2022-12-19T07:12:22.867Z,101302.16
2022-12-19T07:14:53.578Z,101292.72
2022-12-19T07:17:23.496Z,101288.28
2022-12-19T07:19:51.597Z,101295.16
2022-12-19T07:22:19.674Z,101289.44
2022-12-19T07:24:47.502Z,101286.09
2022-12-19T07:27:16.821Z,101281.75
2022-12-19T07:29:44.479Z,101278.78
2022-12-19T07:32:12.225Z,101280.31
2022-12-19T07:34:39.873Z,101280.38
2022-12-19T07:37:07.978Z,101286.47
2022-12-19T07:39:35.718Z,101291.50
2022-12-19T07:42:04.143Z,101288.19
2022-12-19T07:44:38.800Z,101285.56
2022-12-19T07:47:08.997Z,101293.16
2022-12-19T07:49:37.257Z,101293.25
2022-12-19T07:52:05.247Z,101290.03
2022-12-19T07:54:33.158Z,101290.66
2022-12-19T07:57:02.163Z,101293.38
2022-12-19T07:59:35.628Z,101293.28
2022-12-19T08:02:08.340Z,101286.72
2022-12-19T08:04:36.201Z,101291.25
2022-12-19T08:07:04.424Z,101299.66
2022-12-19T08:09:33.473Z,101303.72
2022-12-19T08:12:01.367Z,101295.44
2022-12-19T08:14:29.228Z,101292.28
2022-12-19T08:17:19.687Z,101294.06
2022-12-19T08:19:45.841Z,101282.56
2022-12-19T08:22:13.563Z,101282.50
2022-12-19T08:24:41.178Z,101281.09
2022-12-19T08:27:08.834Z,101278.50
2022-12-19T08:29:36.556Z,101281.13
2022-12-19T08:32:04.824Z,101283.69
2022-12-19T08:34:32.865Z,101282.69
2022-12-19T08:37:01.853Z,101283.81
2022-12-19T08:39:30.066Z,101270.13
2022-12-19T08:41:57.725Z,101262.25
2022-12-19T08:44:25.421Z,101258.94
2022-12-19T08:46:53.234Z,101268.38
2022-12-19T08:49:21.303Z,101257.31
2022-12-19T08:51:49.184Z,101261.94
2022-12-19T08:54:18.198Z,101266.03
2022-12-19T08:56:47.167Z,101260.91
2022-12-19T08:59:16.079Z,101264.31
2022-12-19T09:01:57.748Z,101261.00
2022-12-19T09:06:02.281Z,101255.75
2022-12-19T09:07:15.235Z,101258.25
2022-12-19T09:09:45.223Z,101252.16
2022-12-19T09:12:13.263Z,101251.41
2022-12-19T09:14:41.085Z,101253.75
2022-12-19T09:17:08.912Z,101245.38
2022-12-19T09:19:37.134Z,101249.06
2022-12-19T09:22:05.417Z,101245.75
2022-12-19T09:24:33.100Z,101255.22
2022-12-19T09:27:02.381Z,101257.66
2022-12-19T09:29:35.080Z,101249.84
2022-12-19T09:32:03.441Z,101250.72
2022-12-19T09:34:37.833Z,101252.47
2022-12-19T09:37:07.499Z,101258.31
2022-12-19T09:39:35.956Z,101257.50
2022-12-19T09:42:23.247Z,101257.47
2022-12-19T09:45:09.257Z,101259.94
2022-12-19T09:47:45.737Z,101261.78
2022-12-19T09:50:27.007Z,101254.03
2022-12-19T09:53:00.679Z,101253.25
2022-12-19T09:55:34.051Z,101247.41
2022-12-19T09:58:11.058Z,101232.22
2022-12-19T10:00:43.199Z,101224.50
2022-12-19T10:03:19.068Z,101238.09
2022-12-19T10:07:00.902Z,101233.84
2022-12-19T10:09:12.247Z,101240.75
2022-12-19T10:12:46.512Z,101221.22
2022-12-19T10:14:50.422Z,101226.19
2022-12-19T10:17:28.131Z,101233.16
2022-12-19T10:20:20.195Z,101222.84
2022-12-19T10:23:00.091Z,101216.09
2022-12-19T10:25:37.606Z,101228.81
2022-12-19T10:28:16.888Z,101232.22
2022-12-19T10:30:52.079Z,101217.78
2022-12-19T10:33:27.707Z,101228.03
2022-12-19T10:36:01.801Z,101233.13
2022-12-19T10:38:36.696Z,101216.88
2022-12-19T10:41:16.677Z,101206.88
2022-12-19T10:43:53.515Z,101192.38
2022-12-19T10:46:33.416Z,101201.66
2022-12-19T10:49:01.204Z,101196.59
2022-12-19T10:51:32.687Z,101199.22
2022-12-19T10:54:01.495Z,101211.13
2022-12-19T10:56:37.173Z,101215.34
2022-12-19T10:59:16.139Z,101207.59
2022-12-19T11:01:46.124Z,101200.81
2022-12-19T11:04:30.213Z,101192.44
2022-12-19T11:07:07.553Z,101196.63
2022-12-19T11:09:39.600Z,101192.44
2022-12-19T11:15:33.039Z,101175.66
2022-12-19T11:19:29.692Z,101155.97
2022-12-19T11:29:14.855Z,101160.94
2022-12-19T11:29:25.068Z,101161.81
2022-12-19T11:30:08.662Z,101164.25
2022-12-19T11:30:46.769Z,101167.72
2022-12-19T11:32:41.342Z,101172.75
2022-12-19T11:35:25.379Z,101169.38
2022-12-19T11:38:06.571Z,101171.88
2022-12-19T11:40:46.530Z,101148.00
2022-12-19T11:43:43.611Z,101170.19
2022-12-19T11:46:21.459Z,101162.53
2022-12-19T11:48:54.691Z,101146.34
2022-12-19T11:51:29.314Z,101142.94
2022-12-19T11:54:07.235Z,101132.69
2022-12-19T11:56:35.651Z,101140.41
2022-12-19T11:59:13.353Z,101135.28
2022-12-19T12:01:53.248Z,101149.00
2022-12-19T12:04:39.732Z,101133.66
2022-12-19T12:07:19.231Z,101124.31
2022-12-19T12:14:40.620Z,101120.03
2022-12-19T12:22:18.887Z,101123.47
2022-12-19T12:30:59.035Z,101127.78
2022-12-19T12:31:06.805Z,101121.81
2022-12-19T12:31:18.171Z,101110.78
2022-12-19T12:31:52.736Z,101105.63
2022-12-19T12:32:04.007Z,101105.69
2022-12-19T12:35:48.611Z,101109.13
2022-12-19T12:40:03.656Z,101113.44
2022-12-19T12:42:44.444Z,101111.78
2022-12-19T12:45:20.682Z,101119.44
2022-12-19T12:47:52.520Z,101103.22
2022-12-19T12:50:23.688Z,101110.06
2022-12-19T12:52:55.738Z,101110.91
2022-12-19T12:55:29.639Z,101108.31
2022-12-19T12:57:57.721Z,101096.38
2022-12-19T13:00:28.209Z,101094.63
2022-12-19T13:03:03.510Z,101086.94
2022-12-19T13:05:42.118Z,101085.19
2022-12-19T13:08:36.177Z,101083.50
2022-12-19T13:11:07.556Z,101087.78
2022-12-19T13:13:56.313Z,101090.38
2022-12-19T13:16:52.982Z,101088.63
2022-12-19T13:19:28.414Z,101080.09
2022-12-19T13:22:19.401Z,101080.09
2022-12-19T13:24:50.040Z,101081.81
2022-12-19T13:27:40.380Z,101088.66
2022-12-19T13:30:19.178Z,101085.22
2022-12-19T13:33:12.422Z,101081.78
2022-12-19T13:37:55.702Z,101084.31
2022-12-19T13:40:01.047Z,101082.59
2022-12-19T13:41:48.015Z,101077.47
2022-12-19T13:44:20.206Z,101080.88
2022-12-19T13:46:47.953Z,101080.84
2022-12-19T13:49:20.295Z,101091.09
2022-12-19T13:51:50.096Z,101085.09
2022-12-19T13:54:26.884Z,101088.50
2022-12-19T13:56:55.745Z,101082.53
2022-12-19T13:59:27.465Z,101079.13
2022-12-19T14:01:56.427Z,101080.81
2022-12-19T14:04:29.999Z,101077.41
2022-12-19T14:07:01.462Z,101084.22
2022-12-19T14:11:26.111Z,101082.53
2022-12-19T14:13:46.259Z,101083.38
2022-12-19T14:15:34.086Z,101075.69
2022-12-19T14:18:41.899Z,101078.25
2022-12-19T14:22:10.785Z,101079.94
2022-12-19T14:23:43.736Z,101062.88
2022-12-19T14:28:17.739Z,101079.06
2022-12-19T14:29:09.364Z,101088.44
2022-12-19T14:32:40.282Z,101094.34
2022-12-19T14:35:03.975Z,101087.50
2022-12-19T14:38:13.073Z,101093.44
2022-12-19T14:40:24.447Z,101086.56
2022-12-19T14:43:58.918Z,101071.22
2022-12-19T14:54:07.518Z,101058.34
2022-12-19T14:54:15.867Z,101070.34
2022-12-19T14:54:41.627Z,101061.72
2022-12-19T14:58:51.207Z,101072.72
2022-12-19T15:01:09.741Z,101067.53
2022-12-19T15:03:22.848Z,101061.50
2022-12-19T15:05:53.206Z,101064.00
2022-12-19T15:09:50.558Z,101058.88
2022-12-19T15:11:58.223Z,101063.97
2022-12-19T15:14:53.929Z,101069.91
2022-12-19T15:17:26.719Z,101064.75
2022-12-19T15:19:55.859Z,101057.06
2022-12-19T15:22:25.494Z,101063.91
2022-12-19T15:24:54.238Z,101066.44
2022-12-19T15:27:22.809Z,101069.00
2022-12-19T15:29:50.952Z,101068.97
2022-12-19T15:32:19.021Z,101054.44
2022-12-19T15:34:51.466Z,101044.22
2022-12-19T15:37:19.707Z,101037.34
2022-12-19T15:39:48.776Z,101033.94
2022-12-19T15:42:20.767Z,101033.91
2022-12-19T15:44:50.229Z,101023.63
2022-12-19T15:47:20.559Z,101031.25
2022-12-19T15:49:48.477Z,101031.28
2022-12-19T15:52:18.904Z,101034.69
2022-12-19T15:54:50.113Z,101032.09
2022-12-19T15:57:25.302Z,101038.06
2022-12-19T15:59:53.461Z,101033.78
2022-12-19T16:02:23.760Z,101023.53
2022-12-19T16:04:56.902Z,101026.97
2022-12-19T16:07:30.423Z,101021.97
2022-12-19T16:09:59.434Z,101020.31
2022-12-19T16:12:32.772Z,101016.03
2022-12-19T16:15:02.568Z,101016.78
2022-12-19T16:17:33.173Z,101020.19
2022-12-19T16:20:00.891Z,101016.81
2022-12-19T16:22:29.950Z,101018.50
2022-12-19T16:24:59.045Z,101021.13
2022-12-19T16:27:28.957Z,101011.78
2022-12-19T16:29:59.331Z,101005.78
2022-12-19T16:32:27.137Z,101002.34
2022-12-19T16:34:55.653Z,100992.06
2022-12-19T16:37:28.505Z,100998.06
2022-12-19T16:39:56.419Z,100991.19
2022-12-19T16:42:25.606Z,100997.13
2022-12-19T16:44:53.590Z,100994.59
2022-12-19T16:47:21.363Z,100995.47
2022-12-19T16:49:49.155Z,100990.34
2022-12-19T16:52:16.902Z,100989.59
2022-12-19T16:54:44.595Z,100982.78
2022-12-19T16:57:20.635Z,100983.66
2022-12-19T16:59:51.307Z,100996.56
2022-12-19T17:02:40.699Z,100990.66
2022-12-19T17:05:16.127Z,100988.97
2022-12-19T17:07:44.627Z,100991.66
2022-12-19T17:10:13.164Z,100987.47
2022-12-19T17:12:41.404Z,100994.31
2022-12-19T17:15:22.419Z,100984.91
2022-12-19T17:17:51.163Z,100983.22
2022-12-19T17:20:21.782Z,100982.34
2022-12-19T17:22:49.671Z,100984.00
2022-12-19T17:25:21.083Z,100988.28
2022-12-19T17:27:49.632Z,100992.56
2022-12-19T17:30:19.919Z,100992.50
2022-12-19T17:32:50.326Z,100981.41
2022-12-19T17:35:25.731Z,100984.78
2022-12-19T17:37:57.548Z,100999.28
2022-12-19T17:40:27.171Z,101008.63
2022-12-19T17:42:55.544Z,101008.63
2022-12-19T17:45:25.798Z,101011.19
2022-12-19T17:48:02.046Z,101012.81
2022-12-19T17:50:31.699Z,101017.91
2022-12-19T17:52:59.790Z,101012.75
2022-12-19T17:55:29.567Z,101010.16
2022-12-19T17:57:58.106Z,101005.06
2022-12-19T18:00:30.924Z,100992.28
2022-12-19T18:03:04.527Z,100993.16
2022-12-19T18:05:35.744Z,100992.28
2022-12-19T18:08:04.675Z,100980.34
2022-12-19T18:10:33.094Z,100988.03
2022-12-19T18:13:01.093Z,100988.88
2022-12-19T18:15:30.204Z,100984.63
2022-12-19T18:17:58.529Z,100985.44
2022-12-19T18:20:31.780Z,100993.06
2022-12-19T18:23:04.216Z,100997.31
2022-12-19T18:25:35.177Z,100996.47
2022-12-19T18:28:03.152Z,100998.97
2022-12-19T18:30:32.373Z,100998.97
2022-12-19T18:33:02.372Z,100991.31
2022-12-19T18:35:34.875Z,100977.66
2022-12-19T18:38:07.883Z,100967.44
2022-12-19T18:40:35.776Z,100964.00
2022-12-19T18:43:03.445Z,100956.38
2022-12-19T18:45:36.215Z,100955.41
2022-12-19T18:48:08.334Z,100956.31
2022-12-19T18:50:36.221Z,100967.34
2022-12-19T18:53:07.477Z,100965.56
2022-12-19T18:55:35.582Z,100967.31
2022-12-19T18:58:03.365Z,100963.22
2022-12-19T19:00:31.721Z,100949.69
2022-12-19T19:03:04.020Z,100961.75
2022-12-19T19:05:33.273Z,100948.97
2022-12-19T19:08:12.892Z,100946.41
2022-12-19T19:10:40.611Z,100956.66
2022-12-19T19:13:12.177Z,100951.53
2022-12-19T19:15:46.536Z,100969.31
2022-12-19T19:18:17.442Z,100962.34
2022-12-19T19:20:46.833Z,100959.75
2022-12-19T19:23:15.229Z,100952.19
2022-12-19T19:25:43.410Z,100948.00
2022-12-19T19:28:11.233Z,100942.06
2022-12-19T19:30:40.673Z,100939.56
2022-12-19T19:33:14.076Z,100934.56
2022-12-19T19:35:45.828Z,100941.47
2022-12-19T19:38:16.342Z,100944.88
2022-12-19T19:40:44.148Z,100948.34
2022-12-19T19:43:11.827Z,100947.53
2022-12-19T19:45:43.366Z,100951.84
2022-12-19T19:48:11.833Z,100958.69
2022-12-19T19:50:39.928Z,100963.00
2022-12-19T19:53:09.035Z,100964.75
2022-12-19T19:55:36.815Z,100967.31
2022-12-19T19:58:05.209Z,100972.44
2022-12-19T20:00:33.181Z,100969.88
2022-12-19T20:03:05.612Z,100970.75
2022-12-19T20:05:35.937Z,100970.78
2022-12-19T20:08:03.797Z,100973.38
2022-12-19T20:10:32.954Z,100980.22
2022-12-19T20:13:00.782Z,100987.91
2022-12-19T20:15:28.551Z,100981.91
2022-12-19T20:17:56.281Z,100982.78
2022-12-19T20:20:25.016Z,100975.06
2022-12-19T20:22:52.808Z,100986.13
2022-12-19T20:25:20.440Z,100985.94
2022-12-19T20:27:49.419Z,100984.09
2022-12-19T20:30:18.083Z,100980.66
2022-12-19T20:32:45.768Z,100990.00
2022-12-19T20:35:15.037Z,100996.75
2022-12-19T20:37:43.008Z,100996.72
2022-12-19T20:40:11.632Z,100992.47
2022-12-19T20:42:39.312Z,100991.63
2022-12-19T20:45:09.328Z,100994.19
2022-12-19T20:47:37.134Z,100994.16
2022-12-19T20:50:06.023Z,100984.78
2022-12-19T20:52:33.878Z,100984.78
2022-12-19T20:55:01.592Z,100977.91
2022-12-19T20:57:30.442Z,100984.75
2022-12-19T20:59:58.159Z,100981.34
2022-12-19T21:02:27.514Z,100977.06
2022-12-19T21:04:55.456Z,100987.28
2022-12-19T21:07:23.666Z,100980.47
2022-12-19T21:09:53.928Z,100980.44
2022-12-19T21:12:22.479Z,100981.28
2022-12-19T21:14:50.730Z,100990.63
2022-12-19T21:17:18.456Z,100990.59
2022-12-19T21:19:48.314Z,100992.28
2022-12-19T21:22:16.227Z,100996.56
2022-12-19T21:24:43.855Z,100993.16
2022-12-19T21:27:11.519Z,100984.63
2022-12-19T21:29:39.399Z,100996.59
2022-12-19T21:32:09.126Z,100993.22
2022-12-19T21:34:38.747Z,100981.28
2022-12-19T21:37:07.772Z,100979.59
2022-12-19T21:39:35.401Z,100973.63
2022-12-19T21:42:03.552Z,100967.66
2022-12-19T21:44:31.409Z,100973.63
2022-12-19T21:46:59.387Z,100977.06
2022-12-19T21:49:27.253Z,100976.25
2022-12-19T21:51:55.346Z,100983.91
2022-12-19T21:54:24.793Z,100975.38
2022-12-19T21:56:52.457Z,100978.78
2022-12-19T21:59:20.136Z,100985.59
2022-12-19T22:01:47.981Z,100971.94
2022-12-19T22:04:21.157Z,100979.56
2022-12-19T22:06:50.004Z,100974.44
2022-12-19T22:09:20.172Z,100979.56
2022-12-19T22:11:49.668Z,100980.44
2022-12-19T22:14:18.227Z,100978.75
2022-12-19T22:16:46.140Z,100980.50
2022-12-19T22:19:15.134Z,100981.34
2022-12-19T22:21:42.837Z,100984.81
2022-12-19T22:24:12.637Z,100979.63
2022-12-19T22:26:40.727Z,100992.38
2022-12-19T22:29:11.547Z,100977.09
2022-12-19T22:31:40.703Z,100962.56
2022-12-19T22:34:11.233Z,100958.38
2022-12-19T22:36:40.599Z,100948.03
2022-12-19T22:39:10.747Z,100954.03
2022-12-19T22:41:39.500Z,100953.16
2022-12-19T22:44:09.781Z,100954.88
2022-12-19T22:46:38.722Z,100962.53
2022-12-19T22:49:09.270Z,100960.00
2022-12-19T22:51:37.800Z,100953.19
2022-12-19T22:54:06.535Z,100948.09
2022-12-19T22:56:35.554Z,100952.31
2022-12-19T22:59:06.484Z,100947.22
2022-12-19T23:01:37.893Z,100955.72
2022-12-19T23:04:07.811Z,100953.09
2022-12-19T23:06:37.156Z,100954.88
2022-12-19T23:09:06.255Z,100960.84
2022-12-19T23:11:36.103Z,100954.91
2022-12-19T23:14:05.465Z,100946.41
2022-12-19T23:16:33.168Z,100944.69
2022-12-19T23:19:02.220Z,100940.44
2022-12-19T23:21:30.025Z,100941.28
2022-12-19T23:23:57.827Z,100934.44
2022-12-19T23:26:28.074Z,100937.84
2022-12-19T23:28:58.937Z,100937.06
2022-12-19T23:31:27.738Z,100931.09
2022-12-19T23:33:56.334Z,100928.53
2022-12-19T23:39:14.981Z,100926.88
2022-12-19T23:41:42.998Z,100932.03
2022-12-19T23:44:11.756Z,100939.72
2022-12-19T23:46:39.960Z,100930.38
2022-12-19T23:49:07.970Z,100923.53
2022-12-19T23:51:37.029Z,100919.25
2022-12-19T23:54:05.005Z,100910.72
2022-12-19T23:56:33.226Z,100909.88
2022-12-19T23:59:01.282Z,100914.09
